createdAt,value
2017-09-26T00:01:00.459Z,22.17
2017-09-26T00:03:27.999Z,21.37
2017-09-26T00:05:55.620Z,20.60
2017-09-26T00:08:23.938Z,22.10
2017-09-26T00:10:51.520Z,19.50
2017-09-26T00:13:19.085Z,21.43
2017-09-26T00:15:46.635Z,20.77
2017-09-26T00:18:14.178Z,20.07
2017-09-26T00:20:41.766Z,20.63
2017-09-26T00:23:09.318Z,20.27
2017-09-26T00:25:36.877Z,20.87
2017-09-26T00:28:04.421Z,19.67
2017-09-26T00:30:32.001Z,22.67
2017-09-26T00:32:59.545Z,21.20
2017-09-26T00:35:27.092Z,20.80
2017-09-26T00:37:55.217Z,21.30
2017-09-26T00:40:22.752Z,21.37
2017-09-26T00:42:50.301Z,22.80
2017-09-26T00:45:17.856Z,23.30
2017-09-26T00:47:45.397Z,23.30
2017-09-26T00:50:12.943Z,23.93
2017-09-26T00:52:41.258Z,22.20
2017-09-26T00:55:08.824Z,23.83
2017-09-26T00:57:36.362Z,22.43
2017-09-26T01:00:03.912Z,23.50
2017-09-26T01:02:31.456Z,22.83
2017-09-26T01:05:14.653Z,23.20
2017-09-26T01:07:47.716Z,21.57
2017-09-26T01:10:15.289Z,21.00
2017-09-26T01:12:42.842Z,24.13
2017-09-26T01:15:10.386Z,21.50
2017-09-26T01:17:37.966Z,21.33
2017-09-26T01:20:05.509Z,21.37
2017-09-26T01:22:33.047Z,21.30
2017-09-26T01:25:00.942Z,20.70
2017-09-26T01:27:28.509Z,20.03
2017-09-26T01:29:56.069Z,20.80
2017-09-26T01:32:23.730Z,20.93
2017-09-26T01:34:51.268Z,20.27
2017-09-26T01:37:18.918Z,22.00
2017-09-26T01:39:46.550Z,20.87
2017-09-26T01:42:14.930Z,20.93
2017-09-26T01:44:43.308Z,20.70
2017-09-26T01:47:11.794Z,21.90
2017-09-26T01:49:40.177Z,21.30
2017-09-26T01:52:07.800Z,21.37
2017-09-26T01:54:35.439Z,20.00
2017-09-26T01:57:04.954Z,21.50
2017-09-26T01:59:43.408Z,23.50
2017-09-26T02:02:11.841Z,21.47
2017-09-26T02:04:39.491Z,23.13
2017-09-26T02:07:07.123Z,21.63
2017-09-26T02:09:35.505Z,22.03
2017-09-26T02:12:03.895Z,23.93
2017-09-26T02:14:31.530Z,21.83
2017-09-26T02:16:59.943Z,24.47
2017-09-26T02:19:27.554Z,24.70
2017-09-26T02:21:55.271Z,24.70
2017-09-26T02:24:22.936Z,25.70
2017-09-26T02:26:50.788Z,23.57
2017-09-26T02:29:18.464Z,23.93
2017-09-26T02:31:46.093Z,23.17
2017-09-26T02:34:14.537Z,21.47
2017-09-26T02:36:42.238Z,21.63
2017-09-26T02:39:10.625Z,21.73
2017-09-26T02:41:39.006Z,22.60
2017-09-26T02:44:07.399Z,22.17
2017-09-26T02:46:35.070Z,21.70
2017-09-26T02:49:02.683Z,23.47
2017-09-26T02:51:30.395Z,22.27
2017-09-26T02:53:58.057Z,22.40
2017-09-26T02:56:26.256Z,20.70
2017-09-26T02:58:54.000Z,23.30
2017-09-26T03:01:21.664Z,22.20
2017-09-26T03:03:49.327Z,21.73
2017-09-26T03:06:16.955Z,21.83
2017-09-26T03:08:45.940Z,22.33
2017-09-26T03:11:14.325Z,22.90
2017-09-26T03:13:42.727Z,23.30
2017-09-26T03:16:10.395Z,23.20
2017-09-26T03:18:38.055Z,23.63
2017-09-26T03:21:05.729Z,22.10
2017-09-26T03:23:33.384Z,22.97
2017-09-26T03:26:01.045Z,23.03
2017-09-26T03:28:28.682Z,22.97
2017-09-26T03:30:57.063Z,21.80
2017-09-26T03:33:24.748Z,21.50
2017-09-26T03:35:52.382Z,20.90
2017-09-26T03:38:20.856Z,20.80
2017-09-26T03:40:49.274Z,23.90
2017-09-26T03:43:16.908Z,25.43
2017-09-26T03:45:45.286Z,23.90
2017-09-26T03:48:13.664Z,25.70
2017-09-26T03:50:42.058Z,22.27
2017-09-26T03:53:09.676Z,22.07
2017-09-26T03:55:37.292Z,23.53
2017-09-26T03:58:04.926Z,22.50
2017-09-26T04:00:33.351Z,23.40
2017-09-26T04:03:00.971Z,21.57
2017-09-26T04:05:29.391Z,21.20
2017-09-26T04:07:57.003Z,21.00
2017-09-26T04:10:25.385Z,21.53
2017-09-26T04:12:53.800Z,21.63
2017-09-26T04:15:21.435Z,21.70
2017-09-26T04:17:49.832Z,21.50
2017-09-26T04:20:17.467Z,22.10
2017-09-26T04:22:45.853Z,21.33
2017-09-26T04:25:14.236Z,21.97
2017-09-26T04:27:41.881Z,22.00
2017-09-26T04:30:10.263Z,22.13
2017-09-26T04:32:38.780Z,22.50
2017-09-26T04:35:06.442Z,22.70
2017-09-26T04:37:34.062Z,23.03
2017-09-26T04:40:01.711Z,22.67
2017-09-26T04:42:29.586Z,20.57
2017-09-26T04:44:58.980Z,20.80
2017-09-26T04:47:26.718Z,22.80
2017-09-26T04:49:54.355Z,22.33
2017-09-26T04:52:21.972Z,20.40
2017-09-26T04:54:49.582Z,20.43
2017-09-26T04:57:17.252Z,20.83
2017-09-26T04:59:44.863Z,21.30
2017-09-26T05:02:12.475Z,21.27
2017-09-26T05:04:40.052Z,21.27
2017-09-26T05:07:07.612Z,28.10
2017-09-26T05:09:35.172Z,20.90
2017-09-26T05:12:02.752Z,20.77
2017-09-26T05:14:30.327Z,21.67
2017-09-26T05:16:57.888Z,20.90
2017-09-26T05:19:25.474Z,22.77
2017-09-26T05:21:53.100Z,22.13
2017-09-26T05:24:20.667Z,22.17
2017-09-26T05:26:48.251Z,20.63
2017-09-26T05:29:15.843Z,24.27
2017-09-26T05:31:43.412Z,23.10
2017-09-26T05:34:11.001Z,24.30
2017-09-26T05:36:39.337Z,22.77
2017-09-26T05:39:06.941Z,21.90
2017-09-26T05:41:34.572Z,22.67
2017-09-26T05:44:02.161Z,23.00
2017-09-26T05:46:29.852Z,23.90
2017-09-26T05:48:58.209Z,22.80
2017-09-26T05:51:26.552Z,22.97
2017-09-26T05:53:54.242Z,22.70
2017-09-26T05:56:21.828Z,25.40
2017-09-26T05:58:50.188Z,27.80
2017-09-26T06:01:17.748Z,30.07
2017-09-26T06:03:45.366Z,30.50
2017-09-26T06:06:12.971Z,28.60
2017-09-26T06:08:40.543Z,30.00
2017-09-26T06:11:08.896Z,29.90
2017-09-26T06:13:36.460Z,56.40
2017-09-26T06:16:04.131Z,33.40
2017-09-26T06:18:31.793Z,29.90
2017-09-26T06:20:59.356Z,27.77
2017-09-26T06:23:27.727Z,28.00
2017-09-26T06:25:55.304Z,27.30
2017-09-26T06:28:23.637Z,27.93
2017-09-26T06:30:51.203Z,24.77
2017-09-26T06:33:19.019Z,27.30
2017-09-26T06:35:47.347Z,27.03
2017-09-26T06:38:14.931Z,27.20
2017-09-26T06:40:42.597Z,24.70
2017-09-26T06:43:10.180Z,24.93
2017-09-26T06:45:38.511Z,23.47
2017-09-26T06:48:06.256Z,22.33
2017-09-26T06:50:33.841Z,23.80
2017-09-26T06:53:01.522Z,19.03
2017-09-26T06:55:29.106Z,21.63
2017-09-26T06:57:57.434Z,18.10
2017-09-26T07:00:24.997Z,20.00
2017-09-26T07:02:52.680Z,18.00
2017-09-26T07:05:20.257Z,18.77
2017-09-26T07:07:48.586Z,17.73
2017-09-26T07:10:16.280Z,18.30
2017-09-26T07:12:43.842Z,16.40
2017-09-26T07:15:11.408Z,17.10
2017-09-26T07:17:39.768Z,16.10
2017-09-26T07:20:07.336Z,15.20
2017-09-26T07:22:35.008Z,16.00
2017-09-26T07:25:02.596Z,14.47
2017-09-26T07:27:30.163Z,16.50
2017-09-26T07:29:57.786Z,15.10
2017-09-26T07:32:25.632Z,15.37
2017-09-26T07:34:53.215Z,15.70
2017-09-26T07:37:20.779Z,15.50
2017-09-26T07:39:49.141Z,16.23
2017-09-26T07:42:16.923Z,15.37
2017-09-26T07:44:44.575Z,14.63
2017-09-26T07:47:12.235Z,15.17
2017-09-26T07:49:39.799Z,15.63
2017-09-26T07:52:07.460Z,15.17
2017-09-26T07:54:35.119Z,13.33
2017-09-26T07:57:03.458Z,14.33
2017-09-26T07:59:31.125Z,13.63
2017-09-26T08:01:59.390Z,13.70
2017-09-26T08:04:27.741Z,14.23
2017-09-26T08:06:56.740Z,14.20
2017-09-26T08:09:25.858Z,14.03
2017-09-26T08:11:53.428Z,13.33
2017-09-26T08:14:20.995Z,12.30
2017-09-26T08:16:48.583Z,11.90
2017-09-26T08:19:16.248Z,11.23
2017-09-26T08:21:43.810Z,11.83
2017-09-26T08:24:11.400Z,13.17
2017-09-26T08:26:39.732Z,11.70
2017-09-26T08:29:07.304Z,11.43
2017-09-26T08:31:34.892Z,10.73
2017-09-26T08:34:03.248Z,11.90
2017-09-26T08:36:30.828Z,11.57
2017-09-26T08:38:59.285Z,11.53
2017-09-26T08:41:27.079Z,10.27
2017-09-26T08:43:55.435Z,10.30
2017-09-26T08:46:23.095Z,10.90
2017-09-26T08:48:50.656Z,9.83
2017-09-26T08:51:18.227Z,10.43
2017-09-26T08:53:46.585Z,10.23
2017-09-26T08:56:14.148Z,9.73
2017-09-26T08:58:41.717Z,10.40
2017-09-26T09:01:09.383Z,9.97
2017-09-26T09:03:37.038Z,8.60
2017-09-26T09:06:04.663Z,9.07
2017-09-26T09:08:32.245Z,8.10
2017-09-26T09:10:59.821Z,7.13
2017-09-26T09:13:27.382Z,8.50
2017-09-26T09:15:55.040Z,7.37
2017-09-26T09:18:22.704Z,8.20
2017-09-26T09:20:50.264Z,8.27
2017-09-26T09:23:17.844Z,8.20
2017-09-26T09:25:46.172Z,7.77
2017-09-26T09:28:13.768Z,8.43
2017-09-26T09:30:42.132Z,9.40
2017-09-26T09:33:09.703Z,8.40
2017-09-26T09:35:38.084Z,7.50
2017-09-26T09:38:05.668Z,8.00
2017-09-26T09:40:33.997Z,7.93
2017-09-26T09:43:01.579Z,8.97
2017-09-26T09:45:29.163Z,8.30
2017-09-26T09:47:57.493Z,8.70
2017-09-26T09:50:25.075Z,8.50
2017-09-26T09:52:52.743Z,8.93
2017-09-26T09:55:20.309Z,8.70
2017-09-26T09:57:47.874Z,9.07
2017-09-26T10:00:15.520Z,9.37
2017-09-26T10:02:43.182Z,7.47
2017-09-26T10:05:10.842Z,8.67
2017-09-26T10:07:38.432Z,7.53
2017-09-26T10:10:06.758Z,8.50
2017-09-26T10:12:34.320Z,8.63
2017-09-26T10:15:01.900Z,9.37
2017-09-26T10:17:29.468Z,9.30
2017-09-26T10:19:58.545Z,9.07
2017-09-26T10:22:26.127Z,9.03
2017-09-26T10:24:55.199Z,8.83
2017-09-26T10:27:22.768Z,9.23
2017-09-26T10:29:50.348Z,7.97
2017-09-26T10:32:17.999Z,8.57
2017-09-26T10:34:46.376Z,9.40
2017-09-26T10:37:14.763Z,7.90
2017-09-26T10:39:42.427Z,8.43
2017-09-26T10:59:23.807Z,7.20
2017-09-26T11:01:51.381Z,7.57
2017-09-26T11:04:19.039Z,6.27
2017-09-26T11:06:46.686Z,7.20
2017-09-26T11:09:14.263Z,6.10
2017-09-26T11:11:41.825Z,5.97
2017-09-26T11:14:09.408Z,7.10
2017-09-26T11:16:37.733Z,7.40
2017-09-26T11:19:05.292Z,6.67
2017-09-26T11:21:32.871Z,6.63
2017-09-26T11:24:00.428Z,6.87
2017-09-26T11:26:28.512Z,7.40
2017-09-26T11:28:56.104Z,6.90
2017-09-26T11:31:24.436Z,6.90
2017-09-26T11:33:52.000Z,6.47
2017-09-26T11:36:19.588Z,7.60
2017-09-26T11:38:47.916Z,6.93
2017-09-26T11:41:15.584Z,6.07
2017-09-26T11:43:43.175Z,6.67
2017-09-26T11:46:10.743Z,6.20
2017-09-26T11:48:38.468Z,6.93
2017-09-26T11:51:06.059Z,6.97
2017-09-26T11:53:33.631Z,6.57
2017-09-26T11:56:01.283Z,6.40
2017-09-26T11:58:28.916Z,7.27
2017-09-26T12:00:56.479Z,7.27
2017-09-26T12:03:24.041Z,7.40
2017-09-26T12:05:52.371Z,7.10
2017-09-26T12:08:21.435Z,6.80
2017-09-26T12:10:48.993Z,6.80
2017-09-26T12:13:22.160Z,6.40
2017-09-26T12:15:49.746Z,6.50
2017-09-26T12:18:17.312Z,6.73
2017-09-26T12:20:44.972Z,6.13
2017-09-26T12:23:12.542Z,6.53
2017-09-26T12:25:40.881Z,6.90
2017-09-26T12:28:08.548Z,5.93
2017-09-26T12:30:36.145Z,6.20
2017-09-26T12:33:04.520Z,6.43
2017-09-26T12:35:32.892Z,5.90
2017-09-26T12:38:00.458Z,5.90
2017-09-26T12:40:28.779Z,6.70
2017-09-26T12:42:56.411Z,7.40
2017-09-26T12:45:24.744Z,6.07
2017-09-26T12:47:52.356Z,7.03
2017-09-26T12:50:20.703Z,7.50
2017-09-26T12:52:48.755Z,5.77
2017-09-26T12:55:16.315Z,7.27
2017-09-26T12:57:43.895Z,7.33
2017-09-26T13:00:11.455Z,6.90
2017-09-26T13:02:39.011Z,7.75
2017-09-26T13:05:06.607Z,9.23
2017-09-26T13:07:34.933Z,9.00
2017-09-26T13:10:02.506Z,7.00
2017-09-26T13:12:30.092Z,5.90
2017-09-26T13:14:58.455Z,6.90
2017-09-26T13:17:26.026Z,5.72
2017-09-26T13:19:54.375Z,6.60
2017-09-26T13:22:21.936Z,6.22
2017-09-26T13:24:49.513Z,6.10
2017-09-26T13:27:17.177Z,5.68
2017-09-26T13:29:44.836Z,6.12
2017-09-26T13:32:12.400Z,7.87
2017-09-26T13:34:39.992Z,6.78
2017-09-26T13:37:07.552Z,7.47
2017-09-26T13:39:35.176Z,6.77
2017-09-26T13:42:02.760Z,7.10
2017-09-26T13:44:31.084Z,6.90
2017-09-26T13:46:58.676Z,6.53
2017-09-26T13:49:26.264Z,5.33
2017-09-26T13:51:54.615Z,5.60
2017-09-26T13:54:22.995Z,5.37
2017-09-26T13:56:50.584Z,5.50
2017-09-26T13:59:18.225Z,6.07
2017-09-26T14:01:45.783Z,5.17
2017-09-26T14:04:13.435Z,5.33
2017-09-26T14:06:41.104Z,4.80
2017-09-26T14:09:08.679Z,4.80
2017-09-26T14:11:37.038Z,4.50
2017-09-26T14:14:04.604Z,4.57
2017-09-26T14:16:32.191Z,4.40
2017-09-26T14:19:00.545Z,4.40
2017-09-26T14:21:28.209Z,3.60
2017-09-26T14:23:55.771Z,3.92
2017-09-26T14:26:24.143Z,4.30
2017-09-26T14:28:51.708Z,4.80
2017-09-26T14:31:19.361Z,4.28
2017-09-26T14:33:46.949Z,5.00
2017-09-26T14:36:15.284Z,4.33
2017-09-26T14:38:42.848Z,4.47
2017-09-26T14:41:10.433Z,4.47
2017-09-26T14:43:38.804Z,4.30
2017-09-26T14:46:06.732Z,4.00
2017-09-26T14:48:34.316Z,3.97
2017-09-26T14:51:01.880Z,4.10
2017-09-26T14:53:29.444Z,3.63
2017-09-26T14:55:57.796Z,3.60
2017-09-26T14:58:25.391Z,3.60
2017-09-26T15:00:53.056Z,3.40
2017-09-26T15:03:20.719Z,3.40
2017-09-26T15:05:48.287Z,3.87
2017-09-26T15:08:16.651Z,4.33
2017-09-26T15:10:44.240Z,4.03
2017-09-26T15:13:31.189Z,4.83
2017-09-26T15:15:59.699Z,5.30
2017-09-26T15:18:27.258Z,5.00
2017-09-26T15:20:54.814Z,5.90
2017-09-26T15:23:22.489Z,5.93
2017-09-26T15:25:50.819Z,5.60
2017-09-26T15:28:18.716Z,5.20
2017-09-26T15:30:46.402Z,6.23
2017-09-26T15:33:13.976Z,5.70
2017-09-26T15:35:42.305Z,5.07
2017-09-26T15:38:09.888Z,4.93
2017-09-26T15:40:39.000Z,4.70
2017-09-26T15:43:06.572Z,4.50
2017-09-26T15:45:34.924Z,4.60
2017-09-26T15:48:03.246Z,4.03
2017-09-26T15:50:30.808Z,4.23
2017-09-26T15:52:58.433Z,4.73
2017-09-26T15:55:26.760Z,4.20
2017-09-26T15:57:54.320Z,4.67
2017-09-26T16:00:21.932Z,4.33
2017-09-26T16:02:49.496Z,4.23
2017-09-26T16:05:17.871Z,4.80
2017-09-26T16:07:45.535Z,5.27
2017-09-26T16:10:13.100Z,4.33
2017-09-26T16:12:40.664Z,4.57
2017-09-26T16:15:09.023Z,5.20
2017-09-26T16:17:36.587Z,5.80
2017-09-26T16:20:05.647Z,7.37
2017-09-26T16:22:33.309Z,6.50
2017-09-26T16:25:00.883Z,8.80
2017-09-26T16:27:28.477Z,6.23
2017-09-26T16:29:56.149Z,6.60
2017-09-26T16:32:24.481Z,6.27
2017-09-26T16:34:52.041Z,6.40
2017-09-26T16:37:19.636Z,5.87
2017-09-26T16:39:47.994Z,9.70
2017-09-26T16:42:15.568Z,7.77
2017-09-26T16:44:43.153Z,9.20
2017-09-26T16:47:11.507Z,7.33
2017-09-26T16:49:39.164Z,6.70
2017-09-26T16:52:06.752Z,6.20
2017-09-26T16:54:35.080Z,6.57
2017-09-26T16:57:02.640Z,6.30
2017-09-26T16:59:30.332Z,6.67
2017-09-26T17:01:58.665Z,6.70
2017-09-26T17:04:26.233Z,6.80
2017-09-26T17:06:53.816Z,6.57
2017-09-26T17:09:21.384Z,6.33
2017-09-26T17:11:48.948Z,6.53
2017-09-26T17:14:16.539Z,8.53
2017-09-26T17:16:44.108Z,9.13
2017-09-26T17:19:11.671Z,7.63
2017-09-26T17:21:39.243Z,7.13
2017-09-26T17:24:06.843Z,7.47
2017-09-26T17:26:34.471Z,7.07
2017-09-26T17:29:02.057Z,7.30
2017-09-26T17:31:29.620Z,7.40
2017-09-26T17:33:57.289Z,7.30
2017-09-26T17:36:24.871Z,8.10
2017-09-26T17:38:53.200Z,8.30
2017-09-26T17:41:20.771Z,8.50
2017-09-26T17:43:48.464Z,15.43
2017-09-26T17:46:16.046Z,14.93
2017-09-26T17:48:44.456Z,24.43
2017-09-26T17:51:12.060Z,27.93
2017-09-26T17:53:39.632Z,25.23
2017-09-26T17:56:08.074Z,12.17
2017-09-26T17:58:35.676Z,11.10
2017-09-26T18:01:04.051Z,11.63
2017-09-26T18:03:32.389Z,12.40
2017-09-26T18:05:59.980Z,12.50
2017-09-26T18:08:28.315Z,13.37
2017-09-26T18:10:55.924Z,11.70
2017-09-26T18:13:24.327Z,10.57
2017-09-26T18:15:52.800Z,9.40
2017-09-26T18:18:21.159Z,10.60
2017-09-26T18:20:48.748Z,24.57
2017-09-26T18:23:16.431Z,21.87
2017-09-26T18:25:44.291Z,11.10
2017-09-26T18:28:11.887Z,12.37
2017-09-26T18:30:39.461Z,21.03
2017-09-26T18:33:07.088Z,14.73
2017-09-26T18:35:34.795Z,14.37
2017-09-26T18:38:02.389Z,12.93
2017-09-26T18:40:30.888Z,26.93
2017-09-26T18:42:58.497Z,25.93
2017-09-26T18:45:26.120Z,19.07
2017-09-26T18:47:53.694Z,17.10
2017-09-26T18:50:21.442Z,15.70
2017-09-26T18:52:49.212Z,11.30
2017-09-26T18:55:17.119Z,12.30
2017-09-26T18:57:44.799Z,12.07
2017-09-26T19:00:13.158Z,12.43
2017-09-26T19:02:41.564Z,12.90
2017-09-26T19:05:10.204Z,16.13
2017-09-26T19:07:37.931Z,13.90
2017-09-26T19:10:05.643Z,15.60
2017-09-26T19:12:33.363Z,13.50
2017-09-26T19:15:00.935Z,25.87
2017-09-26T19:17:29.368Z,14.13
2017-09-26T19:19:57.915Z,15.57
2017-09-26T19:22:26.238Z,20.97
2017-09-26T19:24:54.595Z,12.90
2017-09-26T19:27:22.239Z,21.13
2017-09-26T19:29:49.867Z,17.70
2017-09-26T19:32:17.490Z,16.87
2017-09-26T19:34:46.009Z,12.63
2017-09-26T19:37:13.667Z,14.87
2017-09-26T19:39:42.132Z,14.70
2017-09-26T19:42:11.507Z,16.93
2017-09-26T19:44:40.549Z,17.73
2017-09-26T19:47:09.118Z,20.80
2017-09-26T19:49:37.192Z,21.10
2017-09-26T19:52:04.860Z,19.27
2017-09-26T19:54:32.481Z,19.53
2017-09-26T19:57:00.130Z,17.60
2017-09-26T19:59:28.520Z,21.33
2017-09-26T20:01:56.144Z,17.07
2017-09-26T20:04:23.780Z,18.30
2017-09-26T20:06:51.400Z,17.47
2017-09-26T20:09:18.962Z,15.77
2017-09-26T20:11:46.606Z,16.20
2017-09-26T20:14:14.228Z,15.67
2017-09-26T20:16:41.893Z,16.37
2017-09-26T20:19:09.532Z,16.43
2017-09-26T20:21:37.919Z,17.20
2017-09-26T20:24:05.540Z,16.50
2017-09-26T20:26:34.739Z,15.43
2017-09-26T20:29:02.455Z,15.83
2017-09-26T20:31:30.137Z,13.43
2017-09-26T20:33:57.731Z,15.13
2017-09-26T20:36:25.395Z,15.60
2017-09-26T20:38:53.791Z,15.40
2017-09-26T20:41:22.151Z,13.63
2017-09-26T20:43:49.807Z,15.20
2017-09-26T20:46:17.375Z,13.90
2017-09-26T20:48:44.966Z,15.30
2017-09-26T20:51:12.531Z,14.17
2017-09-26T20:53:40.155Z,15.27
2017-09-26T20:56:07.798Z,14.67
2017-09-26T20:58:35.426Z,14.07
2017-09-26T21:01:03.020Z,14.07
2017-09-26T21:03:30.705Z,15.00
2017-09-26T21:05:58.280Z,15.30
2017-09-26T21:08:26.636Z,15.83
2017-09-26T21:10:54.228Z,14.43
2017-09-26T21:13:22.584Z,15.20
2017-09-26T21:15:51.018Z,16.47
2017-09-26T21:18:18.603Z,16.50
2017-09-26T21:20:46.183Z,15.53
2017-09-26T21:23:13.751Z,16.27
2017-09-26T21:25:42.115Z,16.67
2017-09-26T21:28:09.680Z,17.77
2017-09-26T21:30:38.013Z,15.73
2017-09-26T21:33:05.601Z,16.10
2017-09-26T21:35:33.164Z,15.10
2017-09-26T21:38:00.734Z,13.67
2017-09-26T21:40:28.560Z,14.00
2017-09-26T21:42:56.146Z,14.43
2017-09-26T21:45:23.717Z,14.10
2017-09-26T21:47:51.638Z,14.57
2017-09-26T21:50:19.219Z,15.20
2017-09-26T21:52:46.974Z,14.47
2017-09-26T21:55:15.102Z,14.17
2017-09-26T21:57:44.142Z,14.37
2017-09-26T22:00:11.735Z,14.00
2017-09-26T22:02:39.323Z,15.57
2017-09-26T22:05:07.658Z,14.80
2017-09-26T22:07:35.247Z,15.07
2017-09-26T22:10:02.855Z,13.20
2017-09-26T22:12:31.183Z,14.27
2017-09-26T22:14:58.755Z,13.83
2017-09-26T22:17:27.217Z,13.57
2017-09-26T22:19:54.780Z,12.87
2017-09-26T22:22:22.344Z,12.90
2017-09-26T22:24:50.001Z,13.10
2017-09-26T22:27:17.572Z,13.77
2017-09-26T22:29:45.903Z,12.60
2017-09-26T22:32:13.479Z,13.13
2017-09-26T22:34:41.134Z,13.50
2017-09-26T22:37:08.700Z,14.07
2017-09-26T22:39:36.288Z,14.10
2017-09-26T22:42:03.853Z,15.13
2017-09-26T22:44:32.220Z,14.37
2017-09-26T22:46:59.804Z,14.03
2017-09-26T22:49:28.160Z,15.40
2017-09-26T22:51:55.721Z,14.67
2017-09-26T22:54:23.384Z,14.63
2017-09-26T22:56:50.956Z,15.10
2017-09-26T22:59:19.319Z,14.43
2017-09-26T23:01:46.981Z,14.70
2017-09-26T23:04:14.560Z,16.00
2017-09-26T23:06:42.887Z,15.97
2017-09-26T23:09:11.332Z,15.93
2017-09-26T23:11:39.685Z,15.00
2017-09-26T23:14:07.343Z,16.50
2017-09-26T23:16:34.952Z,16.37
2017-09-26T23:19:02.563Z,15.60
2017-09-26T23:21:30.128Z,15.53
2017-09-26T23:23:57.788Z,15.77
2017-09-26T23:26:25.452Z,18.13
2017-09-26T23:28:53.016Z,17.70
2017-09-26T23:31:20.599Z,16.77
2017-09-26T23:33:48.947Z,17.20
2017-09-26T23:36:16.607Z,18.23
2017-09-26T23:38:44.270Z,16.77
2017-09-26T23:41:11.896Z,17.67
2017-09-26T23:43:39.455Z,18.73
2017-09-26T23:46:07.051Z,17.53
2017-09-26T23:48:36.125Z,18.10
2017-09-26T23:51:03.687Z,18.43
2017-09-26T23:53:31.262Z,16.90
2017-09-26T23:55:58.818Z,17.27
2017-09-26T23:58:26.382Z,17.70
